createdAt,value
2022-09-23T00:00:49.325Z,98372.06
2022-09-23T00:05:59.605Z,98371.38
2022-09-23T00:11:08.695Z,98368.66
2022-09-23T00:16:14.969Z,98364.28
2022-09-23T00:21:16.812Z,98366.44
2022-09-23T00:26:19.308Z,98361.59
2022-09-23T00:31:22.619Z,98354.25
2022-09-23T00:36:24.294Z,98353.91
2022-09-23T00:41:26.010Z,98356.78
2022-09-23T00:46:29.936Z,98355.91
2022-09-23T00:51:34.428Z,98349.41
2022-09-23T00:56:36.839Z,98347.56
2022-09-23T01:01:38.791Z,98344.88
2022-09-23T01:06:40.847Z,98348.75
2022-09-23T01:12:05.092Z,98337.56
2022-09-23T01:17:11.162Z,98333.59
2022-09-23T01:22:15.424Z,98322.22
2022-09-23T01:27:24.878Z,98315.41
2022-09-23T01:32:34.386Z,98315.22
2022-09-23T01:37:57.014Z,98315.22
2022-09-23T01:43:04.313Z,98311.72
2022-09-23T01:48:15.616Z,98309.88
2022-09-23T01:53:24.081Z,98308.22
2022-09-23T01:58:32.117Z,98295.03
2022-09-23T02:03:55.733Z,98291.38
2022-09-23T02:09:01.880Z,98289.69
2022-09-23T02:14:16.595Z,98290.88
2022-09-23T02:19:35.886Z,98284.22
2022-09-23T02:24:38.323Z,98280.25
2022-09-23T02:29:45.599Z,98278.25
2022-09-23T02:34:53.364Z,98272.78
2022-09-23T02:40:00.073Z,98272.78
2022-09-23T02:45:01.379Z,98258.41
2022-09-23T02:50:02.830Z,98255.25
2022-09-23T02:55:05.698Z,98253.41
2022-09-23T03:00:07.317Z,98252.22
2022-09-23T03:05:08.585Z,98248.53
2022-09-23T03:10:28.244Z,98238.88
2022-09-23T03:15:32.269Z,98238.53
2022-09-23T03:20:34.129Z,98228.50
2022-09-23T03:25:38.266Z,98233.00
2022-09-23T03:30:40.079Z,98218.34
2022-09-23T03:36:20.328Z,98218.50
2022-09-23T03:41:37.122Z,98209.84
2022-09-23T03:46:38.575Z,98210.00
2022-09-23T03:51:44.418Z,98219.88
2022-09-23T03:56:47.749Z,98212.88
2022-09-23T04:01:50.085Z,98220.22
2022-09-23T04:06:51.523Z,98215.22
2022-09-23T04:11:53.233Z,98213.72
2022-09-23T04:16:54.613Z,98206.91
2022-09-23T04:21:56.110Z,98202.25
2022-09-23T04:26:57.509Z,98201.28
2022-09-23T04:31:58.894Z,98198.97
2022-09-23T04:37:00.237Z,98199.31
2022-09-23T04:42:01.528Z,98200.47
2022-09-23T04:47:04.159Z,98188.81
2022-09-23T04:52:05.784Z,98193.97
2022-09-23T04:57:07.134Z,98189.31
2022-09-23T05:02:08.469Z,98187.28
2022-09-23T05:07:10.416Z,98185.47
2022-09-23T05:12:11.710Z,98185.28
2022-09-23T05:17:12.987Z,98190.25
2022-09-23T05:22:14.311Z,98191.91
2022-09-23T05:27:15.597Z,98196.56
2022-09-23T05:32:17.291Z,98190.53
2022-09-23T05:37:18.566Z,98203.84
2022-09-23T05:42:20.875Z,98189.81
2022-09-23T05:47:22.162Z,98197.47
2022-09-23T05:52:23.989Z,98188.91
2022-09-23T05:57:25.258Z,98199.72
2022-09-23T06:02:26.739Z,98194.16
2022-09-23T06:07:28.053Z,98194.28
2022-09-23T06:12:29.334Z,98190.72
2022-09-23T06:17:30.615Z,98188.81
2022-09-23T06:22:33.109Z,98193.59
2022-09-23T06:27:36.335Z,98192.00
2022-09-23T06:32:37.629Z,98196.53
2022-09-23T06:37:38.896Z,98205.44
2022-09-23T06:42:40.665Z,98199.91
2022-09-23T06:47:42.353Z,98196.06
2022-09-23T06:52:49.947Z,98200.41
2022-09-23T06:57:51.224Z,98196.03
2022-09-23T07:02:52.660Z,98203.25
2022-09-23T07:07:54.533Z,98206.78
2022-09-23T07:12:55.843Z,98204.06
2022-09-23T07:17:57.295Z,98201.31
2022-09-23T07:22:59.006Z,98203.78
2022-09-23T07:28:00.827Z,98204.56
2022-09-23T07:33:06.418Z,98206.97
2022-09-23T07:38:14.163Z,98202.75
2022-09-23T07:43:15.847Z,98208.03
2022-09-23T07:48:17.235Z,98211.66
2022-09-23T07:53:18.940Z,98211.75
2022-09-23T07:58:20.767Z,98205.66
2022-09-23T08:03:22.193Z,98211.94
2022-09-23T08:08:23.556Z,98221.53
2022-09-23T08:13:24.872Z,98211.69
2022-09-23T08:18:26.298Z,98213.41
2022-09-23T08:23:27.736Z,98202.31
2022-09-23T08:28:29.069Z,98212.53
2022-09-23T08:33:30.365Z,98208.63
2022-09-23T08:38:31.957Z,98208.25
2022-09-23T08:43:34.561Z,98198.53
2022-09-23T08:48:43.734Z,98192.56
2022-09-23T08:53:46.758Z,98192.53
2022-09-23T08:59:07.441Z,98190.47
2022-09-23T09:04:27.871Z,98185.91
2022-09-23T09:09:36.061Z,98190.88
2022-09-23T09:14:47.662Z,98186.50
2022-09-23T09:19:53.294Z,98190.81
2022-09-23T09:24:58.683Z,98193.31
2022-09-23T09:30:01.194Z,98190.22
2022-09-23T09:35:08.780Z,98193.53
2022-09-23T09:40:13.512Z,98186.91
2022-09-23T09:45:14.821Z,98174.28
2022-09-23T09:50:23.614Z,98174.28
2022-09-23T09:55:28.819Z,98173.66
2022-09-23T10:00:30.091Z,98171.78
2022-09-23T10:05:47.027Z,98164.72
2022-09-23T10:11:11.444Z,98156.84
2022-09-23T10:16:15.443Z,98154.94
2022-09-23T10:21:26.918Z,98142.66
2022-09-23T10:26:33.161Z,98154.16
2022-09-23T10:31:35.507Z,98135.38
2022-09-23T10:36:40.074Z,98136.78
2022-09-23T10:42:09.561Z,98137.38
2022-09-23T10:47:19.435Z,98134.88
2022-09-23T10:52:31.801Z,98129.44
2022-09-23T10:57:41.587Z,98124.47
2022-09-23T11:03:01.648Z,98120.50
2022-09-23T11:08:27.399Z,98120.50
2022-09-23T11:13:58.900Z,98107.13
2022-09-23T11:19:07.935Z,98096.03
2022-09-23T11:24:39.457Z,98096.22
2022-09-23T11:29:54.371Z,98094.91
2022-09-23T11:35:02.599Z,98091.59
2022-09-23T11:40:06.999Z,98084.53
2022-09-23T11:45:15.046Z,98075.06
2022-09-23T11:50:19.549Z,98073.03
2022-09-23T11:55:24.706Z,98069.69
2022-09-23T12:00:34.101Z,98063.41
2022-09-23T12:05:39.675Z,98059.13
2022-09-23T12:10:41.331Z,98048.59
2022-09-23T12:16:05.771Z,98051.06
2022-09-23T12:21:32.994Z,98042.75
2022-09-23T12:26:38.992Z,98043.91
2022-09-23T12:31:43.047Z,98031.38
2022-09-23T12:36:46.954Z,98029.75
2022-09-23T12:41:50.590Z,98034.53
2022-09-23T12:47:11.818Z,98029.75
2022-09-23T12:52:16.305Z,98022.19
2022-09-23T12:57:33.508Z,98018.00
2022-09-23T13:02:46.923Z,98009.56
2022-09-23T13:07:49.892Z,98007.50
2022-09-23T13:12:52.731Z,97996.16
2022-09-23T13:18:13.999Z,97996.66
2022-09-23T13:23:32.782Z,97985.91
2022-09-23T13:28:38.108Z,97986.41
2022-09-23T13:33:51.170Z,97982.53
2022-09-23T13:38:52.454Z,97979.53
2022-09-23T13:44:00.421Z,97973.19
2022-09-23T13:49:02.827Z,97966.81
2022-09-23T13:54:04.628Z,97960.69
2022-09-23T13:59:24.766Z,97962.66
2022-09-23T14:04:26.197Z,97956.78
2022-09-23T14:09:28.963Z,97956.19
2022-09-23T14:14:30.901Z,97950.31
2022-09-23T14:19:32.524Z,97939.41
2022-09-23T14:24:36.888Z,97942.22
2022-09-23T14:29:39.611Z,97931.66
2022-09-23T14:35:09.023Z,97922.34
2022-09-23T14:40:13.192Z,97923.28
2022-09-23T14:45:16.990Z,97919.75
2022-09-23T14:50:43.508Z,97909.03
2022-09-23T14:55:45.945Z,97911.84
2022-09-23T15:00:51.635Z,97897.16
2022-09-23T15:05:57.867Z,97901.03
2022-09-23T15:11:07.640Z,97895.59
2022-09-23T15:16:09.863Z,97898.44
2022-09-23T15:21:12.878Z,97900.41
2022-09-23T15:26:18.609Z,97895.72
2022-09-23T15:31:20.962Z,97897.00
2022-09-23T15:36:28.906Z,97895.56
2022-09-23T15:41:33.340Z,97887.31
2022-09-23T15:46:35.371Z,97886.38
2022-09-23T15:51:38.168Z,97882.69
2022-09-23T15:56:39.713Z,97884.44
2022-09-23T16:01:41.837Z,97876.19
2022-09-23T16:06:45.277Z,97865.72
2022-09-23T16:11:47.850Z,97866.00
2022-09-23T16:16:49.279Z,97855.97
2022-09-23T16:21:50.587Z,97861.69
2022-09-23T16:26:51.917Z,97870.22
2022-09-23T16:31:53.780Z,97868.19
2022-09-23T16:36:55.270Z,97859.34
2022-09-23T16:41:57.333Z,97861.28
2022-09-23T16:46:58.976Z,97859.94
2022-09-23T16:52:01.562Z,97862.31
2022-09-23T16:57:02.860Z,97858.03
2022-09-23T17:02:27.231Z,97854.41
2022-09-23T17:07:29.237Z,97859.09
2022-09-23T17:12:33.462Z,97851.28
2022-09-23T17:17:37.413Z,97853.88
2022-09-23T17:22:38.760Z,97855.19
2022-09-23T17:27:40.227Z,97852.41
2022-09-23T17:32:42.035Z,97854.09
2022-09-23T17:37:43.466Z,97853.34
2022-09-23T17:42:45.506Z,97845.53
2022-09-23T17:47:51.158Z,97846.84
2022-09-23T17:52:52.566Z,97850.59
2022-09-23T17:57:53.836Z,97849.81
2022-09-23T18:02:55.124Z,97846.09
2022-09-23T18:07:56.426Z,97848.59
2022-09-23T18:12:57.742Z,97849.47
2022-09-23T18:17:59.038Z,97849.09
2022-09-23T18:23:00.437Z,97849.13
2022-09-23T18:28:02.230Z,97846.03
2022-09-23T18:33:04.018Z,97837.56
2022-09-23T18:38:06.480Z,97838.19
2022-09-23T18:43:08.722Z,97842.34
2022-09-23T18:48:29.032Z,97846.47
2022-09-23T18:53:31.844Z,97837.56
2022-09-23T18:58:33.484Z,97840.09
2022-09-23T19:03:35.954Z,97840.94
2022-09-23T19:08:37.518Z,97838.25
2022-09-23T19:13:39.603Z,97831.84
2022-09-23T19:18:41.583Z,97822.75
2022-09-23T19:23:47.629Z,97832.72
2022-09-23T19:28:53.226Z,97830.63
2022-09-23T19:33:58.686Z,97835.81
2022-09-23T19:39:02.961Z,97834.56
2022-09-23T19:44:07.168Z,97828.19
2022-09-23T19:49:09.260Z,97826.72
2022-09-23T19:54:11.997Z,97833.13
2022-09-23T19:59:18.347Z,97825.69
2022-09-23T20:04:21.121Z,97829.59
2022-09-23T20:09:22.944Z,97825.28
2022-09-23T20:14:27.232Z,97827.75
2022-09-23T20:19:29.240Z,97820.13
2022-09-23T20:24:30.690Z,97818.47
2022-09-23T20:29:32.287Z,97819.50
2022-09-23T20:34:33.781Z,97815.56
2022-09-23T20:39:35.445Z,97807.09
2022-09-23T20:44:37.022Z,97801.53
2022-09-23T20:49:42.240Z,97807.53
2022-09-23T20:54:44.060Z,97803.38
2022-09-23T20:59:45.649Z,97797.59
2022-09-23T21:04:47.055Z,97794.28
2022-09-23T21:09:48.616Z,97790.78
2022-09-23T21:14:49.963Z,97787.06
2022-09-23T21:19:51.315Z,97791.59
2022-09-23T21:25:26.339Z,97778.59
2022-09-23T21:30:14.792Z,97774.69
2022-09-23T21:35:18.758Z,97776.56
2022-09-23T21:40:38.896Z,97774.91
2022-09-23T21:45:43.061Z,97776.56
2022-09-23T21:50:44.353Z,97768.09
2022-09-23T21:55:48.718Z,97768.72
2022-09-23T22:00:50.087Z,97767.44
2022-09-23T22:06:01.361Z,97774.28
2022-09-23T22:11:04.201Z,97768.72
2022-09-23T22:16:05.987Z,97761.25
2022-09-23T22:21:07.391Z,97767.47
2022-09-23T22:26:08.782Z,97758.56
2022-09-23T22:31:28.962Z,97757.75
2022-09-23T22:36:30.310Z,97755.06
2022-09-23T22:41:31.906Z,97742.28
2022-09-23T22:46:35.018Z,97743.91
2022-09-23T22:51:37.413Z,97735.69
2022-09-23T22:56:38.818Z,97736.50
2022-09-23T23:01:40.514Z,97737.31
2022-09-23T23:06:42.698Z,97724.13
2022-09-23T23:11:44.690Z,97727.81
2022-09-23T23:16:46.403Z,97723.50
2022-09-23T23:21:49.234Z,97724.53
2022-09-23T23:26:51.555Z,97714.81
2022-09-23T23:31:52.938Z,97720.19
2022-09-23T23:36:57.357Z,97716.50
2022-09-23T23:41:58.637Z,97722.88
2022-09-23T23:46:59.938Z,97717.50
2022-09-23T23:52:01.486Z,97712.94
2022-09-23T23:57:02.833Z,97707.59
